Time;durP1;ratioP1;P1;durP2;ratioP2;P2;SDS_P1;SDS_P2;PMS_P1;PMS_P2;Temp;Humidity;BMP_temperature;BMP_pressure;BME280_temperature;BME280_humidity;BME280_pressure;Samples;Min_cycle;Max_cycle;Signal;HPM_P1;HPM_P2
2021/06/29 00:01:50;;;;;;;;;;;;;;;-142.75;74.21;76424.63;5071011;28;19917;-80
2021/06/29 00:04:15;;;;;;;;;;;;;;;-142.75;74.14;76424.63;5067533;28;19999;-80
2021/06/29 00:06:40;;;;;;;;;;;;;;;-142.75;74.13;76422.66;5070384;28;19920;-81
2021/06/29 00:09:05;;;;;;;;;;;;;;;-142.75;74.05;76422.66;5062666;28;20423;-80
2021/06/29 00:11:30;;;;;;;;;;;;;;;-142.75;73.92;76422.66;5059909;28;19916;-80
2021/06/29 00:13:56;;;;;;;;;;;;;;;-142.75;74.01;76416.75;5070980;28;20051;-80
2021/06/29 00:16:21;;;;;;;;;;;;;;;-142.75;74.10;76414.78;5065101;28;19970;-81
2021/06/29 00:18:46;;;;;;;;;;;;;;;-142.75;74.17;76424.63;5057276;28;19928;-80
2021/06/29 00:21:11;;;;;;;;;;;;;;;-142.75;74.44;76428.56;5057523;28;20373;-82
2021/06/29 00:23:40;;;;;;;;;;;;;;;-142.75;74.58;76430.53;5061556;28;19924;-80
2021/06/29 00:26:08;;;;;;;;;;;;;;;-142.75;74.61;76436.44;5070572;28;19928;-80
2021/06/29 00:28:34;;;;;;;;;;;;;;;-142.75;74.58;76428.56;5070651;28;20366;-80
2021/06/29 00:30:59;;;;;;;;;;;;;;;-142.75;74.49;76440.38;5069490;28;19923;-80
2021/06/29 00:33:24;;;;;;;;;;;;;;;-142.75;74.56;76442.34;5063887;28;19916;-81
2021/06/29 00:35:49;;;;;;;;;;;;;;;-142.75;74.47;76452.19;5059608;28;20514;-80
2021/06/29 00:38:14;;;;;;;;;;;;;;;-142.75;74.81;76438.41;5055244;28;19920;-80
2021/06/29 00:40:40;;;;;;;;;;;;;;;-142.75;74.75;76440.38;5060158;28;19974;-81
2021/06/29 00:43:05;;;;;;;;;;;;;;;-142.75;74.58;76446.28;5060761;28;20290;-83
2021/06/29 00:45:30;;;;;;;;;;;;;;;-142.75;74.78;76448.25;5070848;28;19927;-80
2021/06/29 00:47:55;;;;;;;;;;;;;;;-142.75;74.93;76444.31;5056879;28;19924;-80
2021/06/29 00:50:20;;;;;;;;;;;;;;;-142.75;75.12;76432.50;5069233;28;19947;-80
2021/06/29 00:52:46;;;;;;;;;;;;;;;-142.75;75.15;76424.63;5069363;28;19924;-81
2021/06/29 00:55:12;;;;;;;;;;;;;;;-142.75;75.18;76420.69;5068903;28;19917;-79
2021/06/29 00:57:39;;;;;;;;;;;;;;;-142.75;75.16;76418.72;5062198;28;19916;-80
2021/06/29 01:00:08;;;;;;;;;;;;;;;-142.75;75.13;76414.78;5069627;28;20463;-82
2021/06/29 01:02:33;;;;;;;;;;;;;;;-142.75;75.18;76412.81;5069158;28;19916;-79
2021/06/29 01:04:58;;;;;;;;;;;;;;;-142.75;75.08;76414.78;5061480;28;20313;-79
2021/06/29 01:07:23;;;;;;;;;;;;;;;-142.75;75.36;76416.75;5067111;28;19978;-80
2021/06/29 01:09:49;;;;;;;;;;;;;;;-142.75;75.29;76410.84;5058903;28;20448;-83
2021/06/29 01:12:14;;;;;;;;;;;;;;;-142.75;75.28;76416.75;5069028;28;19916;-80
2021/06/29 01:14:40;;;;;;;;;;;;;;;-142.75;75.30;76420.69;5057234;28;19966;-81
2021/06/29 01:17:07;;;;;;;;;;;;;;;-142.75;75.42;76416.75;5063676;28;19916;-81
2021/06/29 01:19:39;;;;;;;;;;;;;;;-142.75;75.40;76420.69;5070429;28;19916;-79
2021/06/29 01:22:05;;;;;;;;;;;;;;;-142.75;75.30;76412.81;5063452;28;19965;-79
2021/06/29 01:24:32;;;;;;;;;;;;;;;-142.75;75.30;76410.84;5063939;28;20344;-80
2021/06/29 01:29:51;;;;;;;;;;;;;;;-142.75;75.39;76404.94;5055729;28;20438;-80
2021/06/29 01:32:17;;;;;;;;;;;;;;;-142.75;75.33;76414.78;5061355;28;19956;-81
2021/06/29 01:34:43;;;;;;;;;;;;;;;-142.75;75.26;76414.78;5073297;28;20298;-80
2021/06/29 01:37:09;;;;;;;;;;;;;;;-142.75;75.35;76416.75;5072646;28;19927;-80
2021/06/29 01:39:34;;;;;;;;;;;;;;;-142.75;75.31;76412.81;5073277;28;20340;-78
2021/06/29 01:41:59;;;;;;;;;;;;;;;-142.75;75.35;76410.84;5072738;28;19932;-81
2021/06/29 01:44:28;;;;;;;;;;;;;;;-142.75;75.42;76412.81;5073876;28;19934;-79
2021/06/29 01:46:55;;;;;;;;;;;;;;;-142.75;75.51;76412.81;5072613;28;19932;-80
2021/06/29 01:49:27;;;;;;;;;;;;;;;-142.75;75.55;76416.75;5072726;28;19916;-80
2021/06/29 01:51:56;;;;;;;;;;;;;;;-142.75;75.54;76416.75;5071404;28;20397;-78
2021/06/29 01:54:22;;;;;;;;;;;;;;;-142.75;75.54;76412.81;5062802;28;19939;-80
2021/06/29 01:56:48;;;;;;;;;;;;;;;-142.75;75.61;76412.81;5071438;28;19970;-79
2021/06/29 01:59:16;;;;;;;;;;;;;;;-142.75;75.76;76410.84;5072018;28;19920;-80
2021/06/29 02:01:43;;;;;;;;;;;;;;;-142.75;75.91;76406.91;5070799;28;19916;-81
2021/06/29 02:04:08;;;;;;;;;;;;;;;-142.75;76.09;76401.00;5060660;28;20526;-80
2021/06/29 02:06:33;;;;;;;;;;;;;;;-142.75;76.25;76410.84;5072181;28;19936;-79
2021/06/29 02:08:58;;;;;;;;;;;;;;;-142.75;76.39;76401.00;5071221;28;20435;-79
2021/06/29 02:11:24;;;;;;;;;;;;;;;-142.75;76.21;76399.03;5062003;28;19931;-78
2021/06/29 02:13:49;;;;;;;;;;;;;;;-142.75;76.23;76408.88;5061850;28;19931;-80
2021/06/29 02:16:14;;;;;;;;;;;;;;;-142.75;76.25;76406.91;5065055;28;19916;-80
2021/06/29 02:18:39;;;;;;;;;;;;;;;-142.75;76.23;76402.97;5065328;28;20290;-80
2021/06/29 02:21:08;;;;;;;;;;;;;;;-142.75;76.29;76401.00;5070647;28;19947;-79
2021/06/29 02:23:33;;;;;;;;;;;;;;;-142.75;76.33;76387.22;5071322;28;20327;-80
2021/06/29 02:25:58;;;;;;;;;;;;;;;-142.75;76.34;76385.25;5071539;28;19974;-80
2021/06/29 02:28:25;;;;;;;;;;;;;;;-142.75;76.49;76381.31;5071747;28;19923;-79
2021/06/29 02:30:50;;;;;;;;;;;;;;;-142.75;76.55;76379.34;5072269;28;19942;-79
2021/06/29 02:33:16;;;;;;;;;;;;;;;-142.75;76.64;76385.25;5063226;28;19917;-80
2021/06/29 02:35:41;;;;;;;;;;;;;;;-142.75;76.70;76389.19;5071512;28;19920;-80
2021/06/29 02:38:06;;;;;;;;;;;;;;;-142.75;76.73;76389.19;5056518;28;20341;-80
2021/06/29 02:40:32;;;;;;;;;;;;;;;-142.75;76.86;76385.25;5062480;28;19924;-80
2021/06/29 02:42:58;;;;;;;;;;;;;;;-142.75;76.98;76381.31;5059643;28;19917;-80
2021/06/29 02:45:23;;;;;;;;;;;;;;;-142.75;77.24;76379.34;5062862;28;20562;-82
2021/06/29 02:47:49;;;;;;;;;;;;;;;-142.75;77.26;76377.38;5061319;28;19947;-79
2021/06/29 02:50:15;;;;;;;;;;;;;;;-142.75;77.40;76381.31;5070634;28;20035;-80
2021/06/29 02:52:41;;;;;;;;;;;;;;;-142.75;77.62;76381.31;5055350;28;19999;-80
2021/06/29 02:55:07;;;;;;;;;;;;;;;-142.75;77.77;76383.28;5070459;28;20377;-81
2021/06/29 02:57:32;;;;;;;;;;;;;;;-142.75;77.89;76379.34;5070823;28;19931;-80
2021/06/29 02:59:58;;;;;;;;;;;;;;;-142.75;77.94;76381.31;5063639;28;20486;-80
2021/06/29 03:02:23;;;;;;;;;;;;;;;-142.75;77.94;76375.41;5070396;28;20369;-80
2021/06/29 03:04:48;;;;;;;;;;;;;;;-142.75;77.89;76381.31;5069963;28;19932;-80
2021/06/29 03:07:13;;;;;;;;;;;;;;;-142.75;77.83;76379.34;5063834;28;19997;-79
2021/06/29 03:09:38;;;;;;;;;;;;;;;-142.75;77.84;76377.38;5061572;28;20440;-80
2021/06/29 03:12:04;;;;;;;;;;;;;;;-142.75;77.77;76377.38;5058912;28;19916;-80
2021/06/29 03:14:30;;;;;;;;;;;;;;;-142.75;77.77;76381.31;5071610;28;19924;-81
2021/06/29 03:16:55;;;;;;;;;;;;;;;-142.75;77.81;76381.31;5071035;28;20596;-80
2021/06/29 03:19:20;;;;;;;;;;;;;;;-142.75;77.79;76371.47;5071417;28;19920;-80
2021/06/29 03:21:45;;;;;;;;;;;;;;;-142.75;77.68;76373.44;5070763;28;19916;-80
2021/06/29 03:24:11;;;;;;;;;;;;;;;-142.75;77.68;76367.53;5071194;28;19916;-80
2021/06/29 03:26:36;;;;;;;;;;;;;;;-142.75;77.49;76369.50;5061761;28;19921;-80
2021/06/29 03:29:04;;;;;;;;;;;;;;;-142.75;77.34;76369.50;5062885;28;20015;-80
2021/06/29 03:31:29;;;;;;;;;;;;;;;-142.75;77.18;76365.56;5096300;22;19920;-78
2021/06/29 03:33:54;;;;;;;;;;;;;;;-142.75;77.19;76359.66;5055727;28;19934;-81
2021/06/29 03:36:19;;;;;;;;;;;;;;;-142.75;77.12;76359.66;5061949;28;19916;-79
2021/06/29 03:38:45;;;;;;;;;;;;;;;-142.75;77.05;76365.56;5061213;28;19917;-79
2021/06/29 03:41:10;;;;;;;;;;;;;;;-142.75;77.06;76369.50;5070522;28;19916;-79
2021/06/29 03:43:36;;;;;;;;;;;;;;;-142.75;77.08;76373.44;5064556;28;19923;-78
2021/06/29 03:46:01;;;;;;;;;;;;;;;-142.75;77.11;76371.47;5071097;28;20493;-79
2021/06/29 03:48:27;;;;;;;;;;;;;;;-142.75;77.05;76371.47;5062885;28;19927;-82
2021/06/29 03:50:52;;;;;;;;;;;;;;;-142.75;77.06;76367.53;5070860;28;19916;-79
2021/06/29 03:53:17;;;;;;;;;;;;;;;-142.75;77.04;76365.56;5069901;28;19923;-79
2021/06/29 03:55:42;;;;;;;;;;;;;;;-142.75;76.98;76375.41;5059922;28;20340;-80
2021/06/29 03:58:07;;;;;;;;;;;;;;;-142.75;76.88;76375.41;5060281;28;19951;-79
2021/06/29 04:00:33;;;;;;;;;;;;;;;-142.75;76.98;76375.41;5071623;28;20323;-80
2021/06/29 04:02:58;;;;;;;;;;;;;;;-142.75;76.92;76381.31;5072288;28;19917;-79
2021/06/29 04:05:23;;;;;;;;;;;;;;;-142.75;76.94;76367.53;5071166;28;20377;-80
2021/06/29 04:07:48;;;;;;;;;;;;;;;-142.75;76.76;76363.59;5064231;28;19982;-80
2021/06/29 04:10:14;;;;;;;;;;;;;;;-142.75;76.67;76367.53;5071697;28;19955;-82
2021/06/29 04:12:39;;;;;;;;;;;;;;;-142.75;76.69;76373.44;5071653;28;19916;-81
2021/06/29 04:15:05;;;;;;;;;;;;;;;-142.75;76.67;76375.41;5071924;28;19920;-82
2021/06/29 04:17:31;;;;;;;;;;;;;;;-142.75;76.64;76365.56;5071388;28;20369;-81
2021/06/29 04:19:56;;;;;;;;;;;;;;;-142.75;76.68;76361.63;5058800;28;19921;-81
2021/06/29 04:22:21;;;;;;;;;;;;;;;-142.75;76.66;76361.63;5071500;28;20466;-80
2021/06/29 04:24:46;;;;;;;;;;;;;;;-142.75;76.81;76353.78;5071910;28;20373;-82
2021/06/29 04:27:12;;;;;;;;;;;;;;;-142.75;76.87;76351.81;5071002;28;20045;-80
2021/06/29 04:29:37;;;;;;;;;;;;;;;-142.75;76.81;76357.69;5071337;28;19916;-80
2021/06/29 04:32:02;;;;;;;;;;;;;;;-142.75;76.83;76361.63;5059461;28;19966;-80
2021/06/29 04:34:28;;;;;;;;;;;;;;;-142.75;76.92;76363.59;5070908;28;20396;-81
2021/06/29 04:36:53;;;;;;;;;;;;;;;-142.75;76.95;76365.56;5071109;28;19917;-80
2021/06/29 04:39:18;;;;;;;;;;;;;;;-142.75;77.07;76361.63;5063772;28;19923;-82
2021/06/29 04:41:43;;;;;;;;;;;;;;;-142.75;77.07;76357.69;5071203;28;19974;-82
2021/06/29 04:44:08;;;;;;;;;;;;;;;-142.75;77.14;76355.72;5071181;28;19916;-82
2021/06/29 04:46:34;;;;;;;;;;;;;;;-142.75;77.10;76355.72;5071454;28;19979;-81
2021/06/29 04:48:59;;;;;;;;;;;;;;;-142.75;76.97;76361.63;5070515;28;19923;-82
2021/06/29 04:51:24;;;;;;;;;;;;;;;-142.75;77.00;76361.63;5059696;28;19917;-80
2021/06/29 04:53:49;;;;;;;;;;;;;;;-142.75;77.08;76363.59;5070963;28;19916;-81
2021/06/29 04:56:18;;;;;;;;;;;;;;;-142.75;77.26;76371.47;5061493;28;19924;-80
2021/06/29 04:58:48;;;;;;;;;;;;;;;-142.75;77.37;76359.66;5071445;28;20259;-82
2021/06/29 05:01:13;;;;;;;;;;;;;;;-142.75;77.28;76365.56;5069434;28;20340;-81
2021/06/29 05:03:39;;;;;;;;;;;;;;;-142.75;77.33;76351.81;5070195;28;19920;-79
2021/06/29 05:06:04;;;;;;;;;;;;;;;-142.75;77.25;76341.97;5074720;28;19968;-82
2021/06/29 05:08:30;;;;;;;;;;;;;;;-142.75;77.20;76341.97;5062329;28;20396;-81
2021/06/29 05:10:55;;;;;;;;;;;;;;;-142.75;77.24;76340.00;5074353;28;19920;-81
2021/06/29 05:13:21;;;;;;;;;;;;;;;-142.75;77.13;76341.97;5068897;28;19922;-82
2021/06/29 05:15:46;;;;;;;;;;;;;;;-142.75;76.92;76340.00;5074153;28;19927;-81
2021/06/29 05:18:11;;;;;;;;;;;;;;;-142.75;76.88;76334.09;5074326;28;19928;-81
2021/06/29 05:20:36;;;;;;;;;;;;;;;-142.75;76.96;76338.03;5063923;28;20032;-81
2021/06/29 05:23:01;;;;;;;;;;;;;;;-142.75;76.92;76334.09;5063658;28;19916;-80
2021/06/29 05:25:28;;;;;;;;;;;;;;;-142.75;76.79;76328.19;5075154;28;19928;-79
2021/06/29 05:27:53;;;;;;;;;;;;;;;-142.75;76.86;76318.34;5074367;28;19916;-81
2021/06/29 05:30:19;;;;;;;;;;;;;;;-142.75;76.86;76328.19;5074691;28;20289;-80
2021/06/29 05:32:44;;;;;;;;;;;;;;;-142.75;76.93;76314.41;5073545;28;19917;-80
2021/06/29 05:35:09;;;;;;;;;;;;;;;-142.75;77.01;76310.47;5073257;28;19959;-80
2021/06/29 05:37:35;;;;;;;;;;;;;;;-142.75;77.03;76306.53;5073190;28;19917;-80
2021/06/29 05:40:00;;;;;;;;;;;;;;;-142.75;77.05;76308.50;5073482;28;19916;-82
2021/06/29 05:42:25;;;;;;;;;;;;;;;-142.75;76.92;76304.56;5060706;28;19916;-80
2021/06/29 05:44:51;;;;;;;;;;;;;;;-142.75;76.78;76302.59;5058924;28;20367;-80
2021/06/29 05:47:21;;;;;;;;;;;;;;;-142.75;76.64;76302.59;5073495;28;19924;-79
2021/06/29 05:49:46;;;;;;;;;;;;;;;-142.75;76.43;76302.59;5073810;28;19915;-80
2021/06/29 05:52:11;;;;;;;;;;;;;;;-142.75;76.33;76302.59;5063956;28;19920;-79
2021/06/29 05:54:36;;;;;;;;;;;;;;;-142.75;76.40;76302.59;5073473;28;19916;-79
2021/06/29 05:57:02;;;;;;;;;;;;;;;-142.75;76.39;76306.53;5074346;28;20121;-79
2021/06/29 05:59:27;;;;;;;;;;;;;;;-142.75;76.47;76308.50;5057731;28;20321;-79
2021/06/29 06:01:53;;;;;;;;;;;;;;;-142.75;76.49;76312.44;5062646;28;20271;-79
2021/06/29 06:04:18;;;;;;;;;;;;;;;-142.75;76.48;76302.59;5073503;28;19928;-81
2021/06/29 06:06:43;;;;;;;;;;;;;;;-142.75;76.33;76310.47;5060277;28;19928;-81
2021/06/29 06:09:08;;;;;;;;;;;;;;;-142.75;76.33;76302.59;5065398;28;19944;-80
2021/06/29 06:11:34;;;;;;;;;;;;;;;-142.75;76.18;76300.63;5072278;28;19966;-80
2021/06/29 06:13:59;;;;;;;;;;;;;;;-142.75;76.10;76292.75;5072868;28;19925;-81
2021/06/29 06:16:24;;;;;;;;;;;;;;;-142.75;76.15;76290.78;5071602;28;19924;-81
2021/06/29 06:18:49;;;;;;;;;;;;;;;-142.75;76.11;76288.81;5072492;28;20335;-82
2021/06/29 06:21:14;;;;;;;;;;;;;;;-142.75;76.21;76290.78;5063987;28;19925;-80
2021/06/29 06:23:40;;;;;;;;;;;;;;;-142.75;76.29;76282.91;5072234;28;20015;-82
2021/06/29 06:26:05;;;;;;;;;;;;;;;-142.75;76.22;76273.06;5071840;28;20392;-82
2021/06/29 06:28:30;;;;;;;;;;;;;;;-142.75;76.13;76267.16;5061986;28;19923;-80
2021/06/29 06:30:55;;;;;;;;;;;;;;;-142.75;76.03;76261.25;5073259;28;19924;-80
2021/06/29 06:33:21;;;;;;;;;;;;;;;-142.75;75.77;76251.41;5060325;28;19951;-81
2021/06/29 06:35:47;;;;;;;;;;;;;;;-142.75;75.77;76243.53;5073597;28;21519;-83
2021/06/29 06:38:12;;;;;;;;;;;;;;;-142.75;75.24;76255.34;5073139;28;19993;-81
2021/06/29 06:40:38;;;;;;;;;;;;;;;-142.75;74.95;76257.31;5073251;28;20316;-81
2021/06/29 06:43:03;;;;;;;;;;;;;;;-142.75;75.07;76257.31;5063563;28;19995;-81
2021/06/29 06:45:28;;;;;;;;;;;;;;;-142.75;75.29;76261.25;5066439;28;19921;-80
2021/06/29 06:47:54;;;;;;;;;;;;;;;-142.75;75.60;76259.28;5073579;28;19917;-81
2021/06/29 06:50:19;;;;;;;;;;;;;;;-142.75;75.63;76265.19;5071973;28;20010;-83
2021/06/29 06:52:45;;;;;;;;;;;;;;;-142.75;75.61;76271.09;5058813;28;20389;-82
2021/06/29 06:55:10;;;;;;;;;;;;;;;-142.75;75.85;76267.16;5072243;28;19917;-84
2021/06/29 06:57:36;;;;;;;;;;;;;;;-142.75;75.91;76263.22;5057877;28;19917;-82
2021/06/29 07:00:01;;;;;;;;;;;;;;;-142.75;75.94;76261.25;5060485;28;19939;-80
2021/06/29 07:02:26;;;;;;;;;;;;;;;-142.75;75.76;76263.22;5076821;28;19924;-83
2021/06/29 07:04:51;;;;;;;;;;;;;;;-142.75;75.76;76267.16;5075888;28;20011;-80
2021/06/29 07:07:17;;;;;;;;;;;;;;;-142.75;75.95;76255.34;5064711;28;20362;-82
2021/06/29 07:09:42;;;;;;;;;;;;;;;-142.75;75.96;76263.22;5072385;28;20476;-84
2021/06/29 07:12:08;;;;;;;;;;;;;;;-142.75;75.89;76267.16;5066946;28;20670;-82
2021/06/29 07:14:33;;;;;;;;;;;;;;;-142.75;76.11;76261.25;5075235;28;19963;-80
2021/06/29 07:16:58;;;;;;;;;;;;;;;-142.75;76.05;76259.28;5076336;28;19955;-80
2021/06/29 07:19:24;;;;;;;;;;;;;;;-142.75;75.63;76263.22;5075393;28;19921;-81
2021/06/29 07:21:49;;;;;;;;;;;;;;;-142.75;75.52;76257.31;5075552;28;19917;-80
2021/06/29 07:24:14;;;;;;;;;;;;;;;-142.75;75.40;76255.34;5058454;28;19974;-81
2021/06/29 07:26:39;;;;;;;;;;;;;;;-142.75;75.06;76247.47;5064721;28;19928;-82
2021/06/29 07:29:04;;;;;;;;;;;;;;;-142.75;75.09;76237.63;5063068;28;20011;-82
2021/06/29 07:31:30;;;;;;;;;;;;;;;-142.75;75.15;76235.66;5060435;28;19916;-80
2021/06/29 07:33:56;;;;;;;;;;;;;;;-142.75;75.10;76235.66;5071888;28;19920;-79
2021/06/29 07:36:21;;;;;;;;;;;;;;;-142.75;74.95;76237.63;5072120;28;19921;-79
2021/06/29 07:38:47;;;;;;;;;;;;;;;-142.75;74.91;76235.66;5070958;28;20415;-81
2021/06/29 07:41:13;;;;;;;;;;;;;;;-142.75;74.35;76247.47;5069560;28;19940;-80
2021/06/29 07:43:38;;;;;;;;;;;;;;;-142.75;74.58;76243.53;5071479;28;20451;-79
2021/06/29 07:46:03;;;;;;;;;;;;;;;-142.75;74.77;76237.63;5070689;28;20025;-81
2021/06/29 07:48:29;;;;;;;;;;;;;;;-142.75;74.74;76237.63;5071366;28;20015;-80
2021/06/29 07:50:54;;;;;;;;;;;;;;;-142.75;74.96;76225.81;5071190;28;19917;-79
2021/06/29 07:53:20;;;;;;;;;;;;;;;-142.75;74.87;76208.09;5070560;28;19916;-81
2021/06/29 07:55:45;;;;;;;;;;;;;;;-142.75;73.51;76190.41;5057512;28;19917;-80
2021/06/29 07:58:10;;;;;;;;;;;;;;;-142.75;73.17;76162.84;5063086;28;19916;-79
2021/06/29 08:00:36;;;;;;;;;;;;;;;-142.75;72.89;76129.38;5070741;28;19920;-79
2021/06/29 08:03:02;;;;;;;;;;;;;;;-142.75;72.21;76099.84;5070645;28;20334;-78
2021/06/29 08:05:27;;;;;;;;;;;;;;;-142.75;72.12;76052.63;5063938;28;20342;-80
2021/06/29 08:07:53;;;;;;;;;;;;;;;-142.75;69.71;76013.25;5070543;28;19971;-79
2021/06/29 08:10:18;;;;;;;;;;;;;;;-142.75;68.82;75952.25;5069494;28;19955;-80
2021/06/29 08:12:43;;;;;;;;;;;;;;;-142.75;68.05;75905.00;5069224;28;20359;-78
2021/06/29 08:15:09;;;;;;;;;;;;;;;-142.75;66.79;75895.16;5068853;28;19913;-78
2021/06/29 08:17:35;;;;;;;;;;;;;;;-142.75;66.91;75865.63;5070382;28;20003;-79
2021/06/29 08:20:00;;;;;;;;;;;;;;;-142.75;66.21;75798.72;5058558;28;19961;-79
2021/06/29 08:22:25;;;;;;;;;;;;;;;-142.75;66.64;75712.13;5069558;28;19920;-81
2021/06/29 08:24:51;;;;;;;;;;;;;;;-142.75;63.45;75582.25;5060707;28;20042;-79
2021/06/29 08:27:16;;;;;;;;;;;;;;;-142.75;60.47;75487.78;5062564;28;19928;-80
2021/06/29 08:29:42;;;;;;;;;;;;;;;-142.75;56.92;75452.34;5060784;28;20053;-78
2021/06/29 08:32:07;;;;;;;;;;;;;;;-142.75;56.99;75407.09;5068070;28;19925;-80
2021/06/29 08:34:32;;;;;;;;;;;;;;;-142.75;53.94;75458.25;5056659;28;19917;-80
2021/06/29 08:36:58;;;;;;;;;;;;;;;-142.75;56.07;75538.94;5069781;28;19916;-80
2021/06/29 08:39:24;;;;;;;;;;;;;;;-142.75;57.70;75592.09;5059265;28;19916;-80
2021/06/29 08:41:49;;;;;;;;;;;;;;;-142.75;57.76;75641.28;5057534;28;19960;-79
2021/06/29 08:44:14;;;;;;;;;;;;;;;-142.75;59.18;75670.81;5070211;28;19932;-77
2021/06/29 08:46:41;;;;;;;;;;;;;;;-142.75;60.16;75672.78;5057335;28;19927;-83
2021/06/29 08:49:06;;;;;;;;;;;;;;;-142.75;59.69;75686.53;5057316;28;19922;-79
2021/06/29 08:51:32;;;;;;;;;;;;;;;-142.75;60.11;75723.94;5057956;28;20277;-79
2021/06/29 08:53:57;;;;;;;;;;;;;;;-142.75;60.51;75737.72;5059010;28;20362;-86
2021/06/29 08:56:22;;;;;;;;;;;;;;;-142.75;61.62;75739.69;5058059;28;19924;-80
2021/06/29 08:58:48;;;;;;;;;;;;;;;-142.75;60.85;75733.78;5068366;28;19938;-80
2021/06/29 09:01:14;;;;;;;;;;;;;;;-142.75;60.34;75727.88;5054105;28;19923;-82
2021/06/29 09:03:39;;;;;;;;;;;;;;;-142.75;60.19;75727.88;5068844;28;19945;-80
2021/06/29 09:06:05;;;;;;;;;;;;;;;-142.75;59.09;75757.41;5060499;28;19938;-82
2021/06/29 09:08:36;;;;;;;;;;;;;;;-142.75;59.59;75753.47;5068493;28;19939;-81
2021/06/29 09:11:06;;;;;;;;;;;;;;;-142.75;59.41;75741.66;5068351;28;20452;-82
2021/06/29 09:13:31;;;;;;;;;;;;;;;-142.75;59.20;75727.88;5058898;28;19923;-80
2021/06/29 09:15:57;;;;;;;;;;;;;;;-142.75;59.72;75741.66;5059460;28;20374;-88
2021/06/29 09:18:24;;;;;;;;;;;;;;;-142.75;60.94;75763.28;5070585;28;19923;-78
2021/06/29 09:20:49;;;;;;;;;;;;;;;-142.75;61.06;75784.94;5070179;28;19920;-79
2021/06/29 09:23:26;;;;;;;;;;;;;;;-142.75;61.42;75798.72;5060779;28;19920;-86
2021/06/29 09:25:54;;;;;;;;;;;;;;;-142.75;61.97;75798.72;5059865;28;19925;-83
2021/06/29 09:28:20;;;;;;;;;;;;;;;-142.75;60.69;75792.81;5070844;28;20053;-78
2021/06/29 09:30:47;;;;;;;;;;;;;;;-142.75;60.35;75759.38;5068172;28;20279;-86
2021/06/29 09:33:17;;;;;;;;;;;;;;;-142.75;59.73;75747.56;5068527;28;19917;-80
2021/06/29 09:35:44;;;;;;;;;;;;;;;-142.75;58.88;75704.25;5070058;28;19917;-81
2021/06/29 09:38:09;;;;;;;;;;;;;;;-142.75;60.21;75657.03;5070297;28;19916;-82
2021/06/29 09:40:35;;;;;;;;;;;;;;;-142.75;58.28;75653.09;5068788;28;19922;-79
2021/06/29 09:45:47;;;;;;;;;;;;;;;-142.75;55.48;75629.47;5028609;28;19925;-82
2021/06/29 09:48:17;;;;;;;;;;;;;;;-142.75;58.04;75651.13;5028444;28;19965;-82
2021/06/29 09:50:46;;;;;;;;;;;;;;;-142.75;57.60;75664.91;5016554;28;20032;-81
2021/06/29 09:53:16;;;;;;;;;;;;;;;-142.75;56.86;75692.44;5031719;28;19917;-82
2021/06/29 09:55:42;;;;;;;;;;;;;;;-142.75;57.32;75723.94;5031955;28;19931;-83
2021/06/29 09:58:09;;;;;;;;;;;;;;;-142.75;58.12;75759.38;5028626;28;19952;-81
2021/06/29 10:00:41;;;;;;;;;;;;;;;-142.75;58.67;75771.16;5033634;28;19917;-82
2021/06/29 10:03:21;;;;;;;;;;;;;;;-142.75;57.79;75769.19;5033400;28;19917;-82
2021/06/29 10:05:46;;;;;;;;;;;;;;;-142.75;58.94;75761.34;5030111;28;19925;-83
2021/06/29 10:08:20;;;;;;;;;;;;;;;-142.75;58.13;75767.22;5034229;28;20294;-81
2021/06/29 10:10:45;;;;;;;;;;;;;;;-142.75;58.44;75771.16;5032135;28;19963;-82
2021/06/29 10:13:17;;;;;;;;;;;;;;;-142.75;59.12;75773.13;5026609;28;19968;-82
2021/06/29 10:15:43;;;;;;;;;;;;;;;-142.75;58.48;75771.16;5033823;28;20353;-81
2021/06/29 10:18:09;;;;;;;;;;;;;;;-142.75;58.82;75765.25;5033719;28;19956;-82
2021/06/29 10:20:49;;;;;;;;;;;;;;;-142.75;59.35;75796.75;5019926;28;19917;-83
2021/06/29 10:23:18;;;;;;;;;;;;;;;-142.75;59.06;75830.22;5033244;28;20008;-83
2021/06/29 10:25:44;;;;;;;;;;;;;;;-142.75;60.12;75849.91;5031107;28;19921;-83
2021/06/29 10:28:16;;;;;;;;;;;;;;;-142.75;60.60;75887.28;5024320;28;20318;-80
2021/06/29 10:30:41;;;;;;;;;;;;;;;-142.75;61.46;75928.63;5031178;28;19932;-82
2021/06/29 10:33:11;;;;;;;;;;;;;;;-142.75;61.90;75934.53;5031698;28;19917;-82
2021/06/29 10:35:37;;;;;;;;;;;;;;;-142.75;61.20;75934.53;5027899;28;20508;-80
2021/06/29 10:38:03;;;;;;;;;;;;;;;-142.75;61.08;75928.63;5041190;28;19924;-81
2021/06/29 10:40:28;;;;;;;;;;;;;;;-142.75;61.62;75912.88;5023301;28;19978;-81
2021/06/29 10:43:01;;;;;;;;;;;;;;;-142.75;61.06;75893.19;5024388;28;20358;-83
2021/06/29 10:45:36;;;;;;;;;;;;;;;-142.75;60.71;75895.16;5032576;28;19921;-82
2021/06/29 10:48:20;;;;;;;;;;;;;;;-142.75;61.44;75897.13;5032718;28;19925;-82
2021/06/29 10:50:46;;;;;;;;;;;;;;;-142.75;61.72;75916.81;5024679;28;20553;-82
2021/06/29 10:53:30;;;;;;;;;;;;;;;-142.75;61.43;75936.50;5033954;28;19924;-82
2021/06/29 10:55:55;;;;;;;;;;;;;;;-142.75;60.86;75956.19;5040929;28;20016;-81
2021/06/29 10:58:37;;;;;;;;;;;;;;;-142.75;61.28;75971.91;5035703;28;20010;-82
2021/06/29 11:01:21;;;;;;;;;;;;;;;-142.75;61.86;75971.91;5036623;28;19917;-83
2021/06/29 11:03:46;;;;;;;;;;;;;;;-142.75;61.44;75969.94;5031535;28;20008;-80
2021/06/29 11:06:11;;;;;;;;;;;;;;;-142.75;61.50;75971.91;5036259;28;19964;-83
2021/06/29 11:08:47;;;;;;;;;;;;;;;-142.75;60.78;75944.38;5034867;28;19925;-82
2021/06/29 11:11:12;;;;;;;;;;;;;;;-142.75;61.52;75887.28;5036767;28;19917;-84
2021/06/29 11:13:45;;;;;;;;;;;;;;;-142.75;61.15;75822.34;5036530;28;19983;-83
2021/06/29 11:16:10;;;;;;;;;;;;;;;-142.75;59.75;75725.91;5036211;28;19956;-82
2021/06/29 11:18:39;;;;;;;;;;;;;;;-142.75;58.56;75686.53;5036368;28;19932;-79
2021/06/29 11:21:06;;;;;;;;;;;;;;;-142.75;56.88;75696.38;5035504;28;19931;-81
2021/06/29 11:23:34;;;;;;;;;;;;;;;-142.75;57.06;75694.41;5036703;28;19963;-81
2021/06/29 11:26:01;;;;;;;;;;;;;;;-142.75;57.07;75690.47;5033575;28;19921;-83
2021/06/29 11:28:30;;;;;;;;;;;;;;;-142.75;56.70;75720.00;5026429;28;20306;-82
2021/06/29 11:30:55;;;;;;;;;;;;;;;-142.75;55.98;75716.06;5042722;28;19921;-80
2021/06/29 11:33:31;;;;;;;;;;;;;;;-142.75;56.79;75725.91;5030135;28;19924;-81
2021/06/29 11:35:56;;;;;;;;;;;;;;;-142.75;56.49;75706.22;5033712;28;20295;-82
2021/06/29 11:38:35;;;;;;;;;;;;;;;-142.75;55.88;75700.31;5034794;28;19924;-81
2021/06/29 11:41:19;;;;;;;;;;;;;;;-142.75;56.86;75706.22;5041186;28;20398;-82
2021/06/29 11:43:45;;;;;;;;;;;;;;;-142.75;56.15;75753.47;5024548;28;19996;-82
2021/06/29 11:46:10;;;;;;;;;;;;;;;-142.75;56.80;75759.38;5042212;28;19968;-80
2021/06/29 11:48:39;;;;;;;;;;;;;;;-142.75;56.73;75763.28;5035321;28;20305;-81
2021/06/29 11:51:05;;;;;;;;;;;;;;;-142.75;56.48;75743.63;5035303;28;20023;-82
2021/06/29 11:53:30;;;;;;;;;;;;;;;-142.75;57.82;75733.78;5036881;28;20405;-81
2021/06/29 11:55:55;;;;;;;;;;;;;;;-142.75;56.09;75745.59;5032872;28;19921;-81
2021/06/29 11:58:20;;;;;;;;;;;;;;;-142.75;57.04;75737.72;5035233;28;19917;-81
2021/06/29 12:00:45;;;;;;;;;;;;;;;-142.75;56.75;75769.19;5027021;28;20391;-82
2021/06/29 12:03:13;;;;;;;;;;;;;;;-142.75;56.52;75781.00;5034566;28;19917;-83
2021/06/29 12:05:39;;;;;;;;;;;;;;;-142.75;57.13;75794.78;5031620;28;19945;-82
2021/06/29 12:08:08;;;;;;;;;;;;;;;-142.75;57.29;75794.78;5033694;28;21195;-80
2021/06/29 12:10:35;;;;;;;;;;;;;;;-142.75;57.85;75786.91;5022119;28;19967;-82
2021/06/29 12:13:04;;;;;;;;;;;;;;;-142.75;58.39;75788.88;5023246;28;19932;-82
2021/06/29 12:15:43;;;;;;;;;;;;;;;-142.75;57.71;75806.59;5032995;28;19917;-80
2021/06/29 12:18:09;;;;;;;;;;;;;;;-142.75;58.18;75840.06;5031930;28;20012;-81
2021/06/29 12:20:36;;;;;;;;;;;;;;;-142.75;57.98;75814.47;5030691;28;19960;-80
2021/06/29 12:23:02;;;;;;;;;;;;;;;-142.75;58.04;75838.09;5039792;28;19925;-80
2021/06/29 12:25:30;;;;;;;;;;;;;;;-142.75;58.40;75838.09;5032989;28;19921;-80
2021/06/29 12:28:01;;;;;;;;;;;;;;;-142.75;57.66;75834.16;5030922;28;20541;-81
2021/06/29 12:30:27;;;;;;;;;;;;;;;-142.75;57.37;75834.16;5021167;28;19923;-79